sensor_id;sensor_type;location;lat;lon;timestamp;P1;durP1;ratioP1;P2;durP2;ratioP2
43142;SDS011;28750;59.842;17.584;2022-11-20T00:01:21;9.82;;;5.63;;
43142;SDS011;28750;59.842;17.584;2022-11-20T00:03:50;3.92;;;2.85;;
43142;SDS011;28750;59.842;17.584;2022-11-20T00:06:18;6.40;;;4.45;;
43142;SDS011;28750;59.842;17.584;2022-11-20T00:08:46;6.25;;;3.95;;
43142;SDS011;28750;59.842;17.584;2022-11-20T00:11:15;6.43;;;4.53;;
43142;SDS011;28750;59.842;17.584;2022-11-20T00:13:44;6.97;;;5.07;;
43142;SDS011;28750;59.842;17.584;2022-11-20T00:16:13;5.70;;;4.30;;
43142;SDS011;28750;59.842;17.584;2022-11-20T00:18:42;4.95;;;4.53;;
43142;SDS011;28750;59.842;17.584;2022-11-20T00:21:19;4.65;;;3.13;;
43142;SDS011;28750;59.842;17.584;2022-11-20T00:23:52;4.45;;;3.03;;
43142;SDS011;28750;59.842;17.584;2022-11-20T00:26:21;2.60;;;2.40;;
43142;SDS011;28750;59.842;17.584;2022-11-20T00:28:53;3.30;;;2.35;;
43142;SDS011;28750;59.842;17.584;2022-11-20T00:31:21;3.90;;;2.10;;
43142;SDS011;28750;59.842;17.584;2022-11-20T00:33:49;2.80;;;2.50;;
43142;SDS011;28750;59.842;17.584;2022-11-20T00:36:17;3.75;;;3.00;;
43142;SDS011;28750;59.842;17.584;2022-11-20T00:38:55;2.70;;;2.50;;
43142;SDS011;28750;59.842;17.584;2022-11-20T00:41:24;2.38;;;2.17;;
43142;SDS011;28750;59.842;17.584;2022-11-20T00:43:52;4.32;;;2.00;;
43142;SDS011;28750;59.842;17.584;2022-11-20T00:46:24;3.38;;;2.15;;
43142;SDS011;28750;59.842;17.584;2022-11-20T00:48:52;2.90;;;2.05;;
43142;SDS011;28750;59.842;17.584;2022-11-20T00:51:21;3.92;;;2.60;;
43142;SDS011;28750;59.842;17.584;2022-11-20T00:53:49;3.30;;;2.38;;
43142;SDS011;28750;59.842;17.584;2022-11-20T00:56:17;2.40;;;2.20;;
43142;SDS011;28750;59.842;17.584;2022-11-20T00:58:45;3.75;;;1.80;;
43142;SDS011;28750;59.842;17.584;2022-11-20T01:01:16;14.48;;;2.88;;
43142;SDS011;28750;59.842;17.584;2022-11-20T01:03:49;4.07;;;2.10;;
43142;SDS011;28750;59.842;17.584;2022-11-20T01:06:18;2.42;;;1.92;;
43142;SDS011;28750;59.842;17.584;2022-11-20T01:09:12;3.33;;;1.85;;
43142;SDS011;28750;59.842;17.584;2022-11-20T01:11:41;6.40;;;2.42;;
43142;SDS011;28750;59.842;17.584;2022-11-20T01:14:11;2.45;;;1.58;;
43142;SDS011;28750;59.842;17.584;2022-11-20T01:16:42;2.67;;;2.33;;
43142;SDS011;28750;59.842;17.584;2022-11-20T01:19:13;2.65;;;2.35;;
43142;SDS011;28750;59.842;17.584;2022-11-20T01:21:42;2.28;;;2.08;;
43142;SDS011;28750;59.842;17.584;2022-11-20T01:24:11;2.38;;;2.17;;
43142;SDS011;28750;59.842;17.584;2022-11-20T01:26:40;3.28;;;2.15;;
43142;SDS011;28750;59.842;17.584;2022-11-20T01:29:13;2.30;;;2.00;;
43142;SDS011;28750;59.842;17.584;2022-11-20T01:31:42;2.50;;;2.30;;
43142;SDS011;28750;59.842;17.584;2022-11-20T01:34:10;6.07;;;2.00;;
43142;SDS011;28750;59.842;17.584;2022-11-20T01:36:39;4.78;;;2.70;;
43142;SDS011;28750;59.842;17.584;2022-11-20T01:39:12;3.10;;;1.60;;
43142;SDS011;28750;59.842;17.584;2022-11-20T01:41:42;2.38;;;2.17;;
43142;SDS011;28750;59.842;17.584;2022-11-20T01:47:46;2.45;;;2.03;;
43142;SDS011;28750;59.842;17.584;2022-11-20T01:50:15;2.53;;;2.20;;
43142;SDS011;28750;59.842;17.584;2022-11-20T01:53:01;3.83;;;2.30;;
43142;SDS011;28750;59.842;17.584;2022-11-20T01:55:32;3.28;;;2.47;;
43142;SDS011;28750;59.842;17.584;2022-11-20T01:58:03;2.72;;;2.03;;
43142;SDS011;28750;59.842;17.584;2022-11-20T02:00:31;7.05;;;2.20;;
43142;SDS011;28750;59.842;17.584;2022-11-20T02:02:58;2.47;;;1.83;;
43142;SDS011;28750;59.842;17.584;2022-11-20T02:08:19;2.33;;;1.90;;
43142;SDS011;28750;59.842;17.584;2022-11-20T02:10:46;2.55;;;1.90;;
43142;SDS011;28750;59.842;17.584;2022-11-20T02:13:13;3.50;;;2.47;;
43142;SDS011;28750;59.842;17.584;2022-11-20T02:15:58;3.22;;;2.10;;
43142;SDS011;28750;59.842;17.584;2022-11-20T02:18:25;2.20;;;1.90;;
43142;SDS011;28750;59.842;17.584;2022-11-20T02:20:53;2.88;;;2.20;;
43142;SDS011;28750;59.842;17.584;2022-11-20T02:26:30;2.72;;;2.20;;
43142;SDS011;28750;59.842;17.584;2022-11-20T02:29:00;5.10;;;2.40;;
43142;SDS011;28750;59.842;17.584;2022-11-20T02:31:28;3.38;;;2.75;;
43142;SDS011;28750;59.842;17.584;2022-11-20T02:33:56;2.20;;;2.00;;
43142;SDS011;28750;59.842;17.584;2022-11-20T02:36:24;2.30;;;2.03;;
43142;SDS011;28750;59.842;17.584;2022-11-20T02:38:53;4.35;;;2.60;;
43142;SDS011;28750;59.842;17.584;2022-11-20T02:41:20;3.63;;;2.20;;
43142;SDS011;28750;59.842;17.584;2022-11-20T02:43:47;2.97;;;1.90;;
43142;SDS011;28750;59.842;17.584;2022-11-20T02:46:14;2.13;;;1.75;;
43142;SDS011;28750;59.842;17.584;2022-11-20T02:48:41;3.40;;;1.95;;
43142;SDS011;28750;59.842;17.584;2022-11-20T02:51:08;2.17;;;1.90;;
43142;SDS011;28750;59.842;17.584;2022-11-20T02:53:35;3.10;;;2.58;;
43142;SDS011;28750;59.842;17.584;2022-11-20T02:56:02;3.03;;;2.15;;
43142;SDS011;28750;59.842;17.584;2022-11-20T02:58:29;2.58;;;2.28;;
43142;SDS011;28750;59.842;17.584;2022-11-20T03:00:56;3.58;;;2.78;;
43142;SDS011;28750;59.842;17.584;2022-11-20T03:03:23;3.60;;;2.45;;
43142;SDS011;28750;59.842;17.584;2022-11-20T03:05:50;4.93;;;3.10;;
43142;SDS011;28750;59.842;17.584;2022-11-20T03:08:17;4.93;;;2.85;;
43142;SDS011;28750;59.842;17.584;2022-11-20T03:10:43;3.22;;;2.83;;
43142;SDS011;28750;59.842;17.584;2022-11-20T03:13:10;3.35;;;2.63;;
43142;SDS011;28750;59.842;17.584;2022-11-20T03:15:37;2.65;;;2.10;;
43142;SDS011;28750;59.842;17.584;2022-11-20T03:18:05;2.75;;;2.03;;
43142;SDS011;28750;59.842;17.584;2022-11-20T03:20:32;2.70;;;2.33;;
43142;SDS011;28750;59.842;17.584;2022-11-20T03:23:00;3.58;;;2.13;;
43142;SDS011;28750;59.842;17.584;2022-11-20T03:25:27;4.60;;;1.90;;
43142;SDS011;28750;59.842;17.584;2022-11-20T03:27:54;2.33;;;2.13;;
43142;SDS011;28750;59.842;17.584;2022-11-20T03:30:21;1.48;;;1.38;;
43142;SDS011;28750;59.842;17.584;2022-11-20T03:32:48;2.97;;;1.48;;
43142;SDS011;28750;59.842;17.584;2022-11-20T03:35:19;1.00;;;0.98;;
43142;SDS011;28750;59.842;17.584;2022-11-20T03:37:46;1.55;;;1.45;;
43142;SDS011;28750;59.842;17.584;2022-11-20T03:40:13;1.95;;;1.52;;
43142;SDS011;28750;59.842;17.584;2022-11-20T03:42:40;1.67;;;1.45;;
43142;SDS011;28750;59.842;17.584;2022-11-20T03:45:16;4.43;;;1.60;;
43142;SDS011;28750;59.842;17.584;2022-11-20T03:47:44;1.50;;;1.40;;
43142;SDS011;28750;59.842;17.584;2022-11-20T03:50:12;1.35;;;1.25;;
43142;SDS011;28750;59.842;17.584;2022-11-20T03:52:39;2.88;;;1.40;;
43142;SDS011;28750;59.842;17.584;2022-11-20T03:55:07;3.45;;;2.00;;
43142;SDS011;28750;59.842;17.584;2022-11-20T03:57:35;2.42;;;1.80;;
43142;SDS011;28750;59.842;17.584;2022-11-20T04:00:03;1.95;;;1.25;;
43142;SDS011;28750;59.842;17.584;2022-11-20T04:02:30;2.83;;;1.50;;
43142;SDS011;28750;59.842;17.584;2022-11-20T04:04:57;2.45;;;1.58;;
43142;SDS011;28750;59.842;17.584;2022-11-20T04:07:24;1.42;;;1.10;;
43142;SDS011;28750;59.842;17.584;2022-11-20T04:09:51;1.92;;;1.60;;
43142;SDS011;28750;59.842;17.584;2022-11-20T04:12:18;1.20;;;1.10;;
43142;SDS011;28750;59.842;17.584;2022-11-20T04:14:45;0.90;;;0.90;;
43142;SDS011;28750;59.842;17.584;2022-11-20T04:17:12;2.33;;;1.30;;
43142;SDS011;28750;59.842;17.584;2022-11-20T04:19:39;2.72;;;1.17;;
43142;SDS011;28750;59.842;17.584;2022-11-20T04:22:06;1.48;;;1.08;;
43142;SDS011;28750;59.842;17.584;2022-11-20T04:24:33;2.20;;;1.17;;
43142;SDS011;28750;59.842;17.584;2022-11-20T04:27:00;1.15;;;1.05;;
43142;SDS011;28750;59.842;17.584;2022-11-20T04:29:27;1.05;;;0.95;;
43142;SDS011;28750;59.842;17.584;2022-11-20T04:31:54;3.92;;;1.48;;
43142;SDS011;28750;59.842;17.584;2022-11-20T04:34:21;1.13;;;1.02;;
43142;SDS011;28750;59.842;17.584;2022-11-20T04:36:48;2.85;;;1.10;;
43142;SDS011;28750;59.842;17.584;2022-11-20T04:39:15;1.15;;;1.08;;
43142;SDS011;28750;59.842;17.584;2022-11-20T04:41:42;2.20;;;1.45;;
43142;SDS011;28750;59.842;17.584;2022-11-20T04:44:09;1.17;;;0.90;;
43142;SDS011;28750;59.842;17.584;2022-11-20T04:46:37;1.00;;;0.90;;
43142;SDS011;28750;59.842;17.584;2022-11-20T04:49:07;2.55;;;1.30;;
43142;SDS011;28750;59.842;17.584;2022-11-20T04:51:34;1.48;;;1.38;;
43142;SDS011;28750;59.842;17.584;2022-11-20T04:54:01;1.40;;;1.30;;
43142;SDS011;28750;59.842;17.584;2022-11-20T04:56:28;1.80;;;1.15;;
43142;SDS011;28750;59.842;17.584;2022-11-20T04:58:55;2.05;;;1.40;;
43142;SDS011;28750;59.842;17.584;2022-11-20T05:01:27;1.23;;;0.93;;
43142;SDS011;28750;59.842;17.584;2022-11-20T05:03:54;1.25;;;1.15;;
43142;SDS011;28750;59.842;17.584;2022-11-20T05:06:21;0.95;;;0.90;;
43142;SDS011;28750;59.842;17.584;2022-11-20T05:08:49;0.93;;;0.90;;
43142;SDS011;28750;59.842;17.584;2022-11-20T05:11:17;2.60;;;1.92;;
43142;SDS011;28750;59.842;17.584;2022-11-20T05:13:46;1.45;;;1.00;;
43142;SDS011;28750;59.842;17.584;2022-11-20T05:16:14;1.55;;;1.30;;
43142;SDS011;28750;59.842;17.584;2022-11-20T05:18:46;1.13;;;1.02;;
43142;SDS011;28750;59.842;17.584;2022-11-20T05:21:13;1.45;;;1.00;;
43142;SDS011;28750;59.842;17.584;2022-11-20T05:23:41;1.95;;;1.25;;
43142;SDS011;28750;59.842;17.584;2022-11-20T05:26:16;1.73;;;1.00;;
43142;SDS011;28750;59.842;17.584;2022-11-20T05:28:46;1.05;;;0.98;;
43142;SDS011;28750;59.842;17.584;2022-11-20T05:31:17;2.40;;;1.38;;
43142;SDS011;28750;59.842;17.584;2022-11-20T05:33:46;1.35;;;1.10;;
43142;SDS011;28750;59.842;17.584;2022-11-20T05:36:14;1.35;;;1.25;;
43142;SDS011;28750;59.842;17.584;2022-11-20T05:38:42;1.42;;;1.15;;
43142;SDS011;28750;59.842;17.584;2022-11-20T05:41:10;0.80;;;0.80;;
43142;SDS011;28750;59.842;17.584;2022-11-20T05:43:40;0.90;;;0.90;;
43142;SDS011;28750;59.842;17.584;2022-11-20T05:46:08;1.23;;;1.00;;
43142;SDS011;28750;59.842;17.584;2022-11-20T05:48:37;2.97;;;0.90;;
43142;SDS011;28750;59.842;17.584;2022-11-20T05:51:06;1.67;;;0.80;;
43142;SDS011;28750;59.842;17.584;2022-11-20T05:53:35;0.75;;;0.75;;
43142;SDS011;28750;59.842;17.584;2022-11-20T05:56:04;1.13;;;0.90;;
43142;SDS011;28750;59.842;17.584;2022-11-20T05:58:39;0.85;;;0.77;;
43142;SDS011;28750;59.842;17.584;2022-11-20T06:01:11;0.65;;;0.65;;
43142;SDS011;28750;59.842;17.584;2022-11-20T06:03:43;0.80;;;0.80;;
43142;SDS011;28750;59.842;17.584;2022-11-20T06:06:12;1.60;;;0.55;;
43142;SDS011;28750;59.842;17.584;2022-11-20T06:08:40;1.48;;;0.90;;
43142;SDS011;28750;59.842;17.584;2022-11-20T06:11:08;0.75;;;0.57;;
43142;SDS011;28750;59.842;17.584;2022-11-20T06:13:37;0.70;;;0.70;;
43142;SDS011;28750;59.842;17.584;2022-11-20T06:16:05;1.08;;;0.52;;
43142;SDS011;28750;59.842;17.584;2022-11-20T06:18:32;1.52;;;0.98;;
43142;SDS011;28750;59.842;17.584;2022-11-20T06:21:00;1.27;;;0.73;;
43142;SDS011;28750;59.842;17.584;2022-11-20T06:23:47;1.98;;;0.90;;
43142;SDS011;28750;59.842;17.584;2022-11-20T06:26:16;1.15;;;0.82;;
43142;SDS011;28750;59.842;17.584;2022-11-20T06:28:52;1.85;;;1.08;;
43142;SDS011;28750;59.842;17.584;2022-11-20T06:31:21;1.65;;;0.90;;
43142;SDS011;28750;59.842;17.584;2022-11-20T06:33:50;2.65;;;0.68;;
43142;SDS011;28750;59.842;17.584;2022-11-20T06:36:18;0.80;;;0.75;;
43142;SDS011;28750;59.842;17.584;2022-11-20T06:38:47;0.98;;;0.60;;
43142;SDS011;28750;59.842;17.584;2022-11-20T06:41:18;0.70;;;0.70;;
43142;SDS011;28750;59.842;17.584;2022-11-20T06:43:47;1.52;;;1.15;;
43142;SDS011;28750;59.842;17.584;2022-11-20T06:46:14;1.05;;;0.93;;
43142;SDS011;28750;59.842;17.584;2022-11-20T06:48:43;1.13;;;1.05;;
43142;SDS011;28750;59.842;17.584;2022-11-20T06:51:10;1.00;;;0.57;;
43142;SDS011;28750;59.842;17.584;2022-11-20T06:53:37;1.70;;;0.80;;
43142;SDS011;28750;59.842;17.584;2022-11-20T06:56:04;0.80;;;0.80;;
43142;SDS011;28750;59.842;17.584;2022-11-20T06:58:32;2.03;;;0.70;;
43142;SDS011;28750;59.842;17.584;2022-11-20T07:01:03;1.23;;;0.68;;
43142;SDS011;28750;59.842;17.584;2022-11-20T07:03:32;1.48;;;0.77;;
43142;SDS011;28750;59.842;17.584;2022-11-20T07:05:59;1.52;;;0.70;;
43142;SDS011;28750;59.842;17.584;2022-11-20T07:08:27;2.05;;;0.70;;
43142;SDS011;28750;59.842;17.584;2022-11-20T07:10:58;0.50;;;0.50;;
43142;SDS011;28750;59.842;17.584;2022-11-20T07:13:30;0.75;;;0.65;;
43142;SDS011;28750;59.842;17.584;2022-11-20T07:15:59;5.38;;;2.15;;
43142;SDS011;28750;59.842;17.584;2022-11-20T07:18:30;1.90;;;1.50;;
43142;SDS011;28750;59.842;17.584;2022-11-20T07:21:01;1.92;;;1.55;;
43142;SDS011;28750;59.842;17.584;2022-11-20T07:23:30;1.08;;;1.00;;
43142;SDS011;28750;59.842;17.584;2022-11-20T07:25:57;1.65;;;1.50;;
43142;SDS011;28750;59.842;17.584;2022-11-20T07:28:24;6.05;;;3.22;;
43142;SDS011;28750;59.842;17.584;2022-11-20T07:30:51;2.25;;;1.77;;
43142;SDS011;28750;59.842;17.584;2022-11-20T07:33:19;1.48;;;0.90;;
43142;SDS011;28750;59.842;17.584;2022-11-20T07:35:46;1.65;;;1.13;;
43142;SDS011;28750;59.842;17.584;2022-11-20T07:38:13;2.58;;;2.10;;
43142;SDS011;28750;59.842;17.584;2022-11-20T07:40:40;2.25;;;0.90;;
43142;SDS011;28750;59.842;17.584;2022-11-20T07:43:07;1.77;;;0.82;;
43142;SDS011;28750;59.842;17.584;2022-11-20T07:45:34;1.52;;;0.50;;
43142;SDS011;28750;59.842;17.584;2022-11-20T07:48:01;0.95;;;0.90;;
43142;SDS011;28750;59.842;17.584;2022-11-20T07:50:28;0.80;;;0.80;;
43142;SDS011;28750;59.842;17.584;2022-11-20T07:53:04;0.60;;;0.60;;
43142;SDS011;28750;59.842;17.584;2022-11-20T07:55:31;2.42;;;0.93;;
43142;SDS011;28750;59.842;17.584;2022-11-20T07:57:58;1.58;;;1.00;;
43142;SDS011;28750;59.842;17.584;2022-11-20T08:00:26;2.47;;;0.75;;
43142;SDS011;28750;59.842;17.584;2022-11-20T08:02:53;0.70;;;0.70;;
43142;SDS011;28750;59.842;17.584;2022-11-20T08:05:20;3.05;;;0.85;;
43142;SDS011;28750;59.842;17.584;2022-11-20T08:07:47;1.00;;;0.82;;
43142;SDS011;28750;59.842;17.584;2022-11-20T08:10:14;0.77;;;0.77;;
43142;SDS011;28750;59.842;17.584;2022-11-20T08:15:33;1.67;;;0.95;;
43142;SDS011;28750;59.842;17.584;2022-11-20T08:18:10;1.27;;;0.73;;
43142;SDS011;28750;59.842;17.584;2022-11-20T08:20:37;3.17;;;1.00;;
43142;SDS011;28750;59.842;17.584;2022-11-20T08:23:05;1.40;;;1.00;;
43142;SDS011;28750;59.842;17.584;2022-11-20T08:25:34;5.07;;;0.98;;
43142;SDS011;28750;59.842;17.584;2022-11-20T08:28:03;5.80;;;2.17;;
43142;SDS011;28750;59.842;17.584;2022-11-20T08:30:32;1.70;;;1.33;;
43142;SDS011;28750;59.842;17.584;2022-11-20T08:33:03;2.33;;;1.70;;
43142;SDS011;28750;59.842;17.584;2022-11-20T08:35:34;2.80;;;1.15;;
43142;SDS011;28750;59.842;17.584;2022-11-20T08:38:03;1.30;;;0.98;;
43142;SDS011;28750;59.842;17.584;2022-11-20T08:40:31;3.22;;;1.38;;
43142;SDS011;28750;59.842;17.584;2022-11-20T08:42:58;2.30;;;2.10;;
43142;SDS011;28750;59.842;17.584;2022-11-20T08:45:25;2.25;;;1.90;;
43142;SDS011;28750;59.842;17.584;2022-11-20T08:47:52;1.70;;;1.35;;
43142;SDS011;28750;59.842;17.584;2022-11-20T08:50:19;2.65;;;2.05;;
43142;SDS011;28750;59.842;17.584;2022-11-20T08:52:46;3.03;;;1.58;;
43142;SDS011;28750;59.842;17.584;2022-11-20T08:55:13;3.40;;;2.10;;
43142;SDS011;28750;59.842;17.584;2022-11-20T08:57:40;4.60;;;3.45;;
43142;SDS011;28750;59.842;17.584;2022-11-20T09:00:07;3.20;;;1.67;;
43142;SDS011;28750;59.842;17.584;2022-11-20T09:02:36;1.77;;;1.52;;
43142;SDS011;28750;59.842;17.584;2022-11-20T09:05:03;1.83;;;1.58;;
43142;SDS011;28750;59.842;17.584;2022-11-20T09:07:30;1.83;;;1.33;;
43142;SDS011;28750;59.842;17.584;2022-11-20T09:09:57;1.98;;;1.77;;
43142;SDS011;28750;59.842;17.584;2022-11-20T09:12:24;2.22;;;1.60;;
43142;SDS011;28750;59.842;17.584;2022-11-20T09:14:51;1.83;;;1.05;;
43142;SDS011;28750;59.842;17.584;2022-11-20T09:17:18;3.85;;;1.20;;
43142;SDS011;28750;59.842;17.584;2022-11-20T09:19:45;1.23;;;1.13;;
43142;SDS011;28750;59.842;17.584;2022-11-20T09:22:13;1.50;;;1.40;;
43142;SDS011;28750;59.842;17.584;2022-11-20T09:24:40;1.42;;;0.93;;
43142;SDS011;28750;59.842;17.584;2022-11-20T09:27:07;1.73;;;0.98;;
43142;SDS011;28750;59.842;17.584;2022-11-20T09:29:34;0.90;;;0.88;;
43142;SDS011;28750;59.842;17.584;2022-11-20T09:32:01;3.00;;;0.75;;
43142;SDS011;28750;59.842;17.584;2022-11-20T09:34:28;0.90;;;0.77;;
43142;SDS011;28750;59.842;17.584;2022-11-20T09:36:55;1.30;;;0.73;;
43142;SDS011;28750;59.842;17.584;2022-11-20T09:39:22;0.82;;;0.70;;
43142;SDS011;28750;59.842;17.584;2022-11-20T09:53:56;1.17;;;1.08;;
43142;SDS011;28750;59.842;17.584;2022-11-20T09:56:12;2.17;;;1.08;;
43142;SDS011;28750;59.842;17.584;2022-11-20T09:58:41;1.35;;;0.80;;
43142;SDS011;28750;59.842;17.584;2022-11-20T10:01:16;2.58;;;0.80;;
43142;SDS011;28750;59.842;17.584;2022-11-20T10:06:32;2.10;;;1.20;;
43142;SDS011;28750;59.842;17.584;2022-11-20T10:14:26;1.42;;;1.27;;
43142;SDS011;28750;59.842;17.584;2022-11-20T10:20:14;1.42;;;0.98;;
43142;SDS011;28750;59.842;17.584;2022-11-20T10:25:20;1.75;;;1.55;;
43142;SDS011;28750;59.842;17.584;2022-11-20T10:27:57;2.72;;;1.42;;
43142;SDS011;28750;59.842;17.584;2022-11-20T10:30:56;1.15;;;0.90;;
43142;SDS011;28750;59.842;17.584;2022-11-20T10:33:30;2.10;;;0.75;;
43142;SDS011;28750;59.842;17.584;2022-11-20T10:36:10;1.05;;;0.93;;
43142;SDS011;28750;59.842;17.584;2022-11-20T10:38:55;2.15;;;1.27;;
43142;SDS011;28750;59.842;17.584;2022-11-20T10:41:42;1.15;;;0.98;;
43142;SDS011;28750;59.842;17.584;2022-11-20T10:44:15;1.92;;;1.48;;
43142;SDS011;28750;59.842;17.584;2022-11-20T10:47:11;2.60;;;1.20;;
43142;SDS011;28750;59.842;17.584;2022-11-20T10:49:44;1.73;;;1.50;;
43142;SDS011;28750;59.842;17.584;2022-11-20T10:55:06;1.55;;;1.20;;
43142;SDS011;28750;59.842;17.584;2022-11-20T10:58:17;3.60;;;1.35;;
43142;SDS011;28750;59.842;17.584;2022-11-20T11:01:05;2.35;;;1.70;;
43142;SDS011;28750;59.842;17.584;2022-11-20T11:03:40;1.15;;;1.08;;
43142;SDS011;28750;59.842;17.584;2022-11-20T11:06:28;1.77;;;1.10;;
43142;SDS011;28750;59.842;17.584;2022-11-20T11:09:19;1.02;;;0.93;;
43142;SDS011;28750;59.842;17.584;2022-11-20T11:11:55;1.58;;;1.40;;
43142;SDS011;28750;59.842;17.584;2022-11-20T11:14:23;2.15;;;1.25;;
43142;SDS011;28750;59.842;17.584;2022-11-20T11:16:54;1.73;;;1.40;;
43142;SDS011;28750;59.842;17.584;2022-11-20T11:19:22;1.63;;;1.25;;
43142;SDS011;28750;59.842;17.584;2022-11-20T11:21:51;2.38;;;1.40;;
43142;SDS011;28750;59.842;17.584;2022-11-20T11:24:23;1.35;;;1.20;;
43142;SDS011;28750;59.842;17.584;2022-11-20T11:26:59;1.38;;;1.30;;
43142;SDS011;28750;59.842;17.584;2022-11-20T11:29:30;3.08;;;1.98;;
43142;SDS011;28750;59.842;17.584;2022-11-20T11:32:07;1.27;;;1.00;;
43142;SDS011;28750;59.842;17.584;2022-11-20T11:34:38;3.95;;;1.88;;
43142;SDS011;28750;59.842;17.584;2022-11-20T11:37:09;2.30;;;2.00;;
43142;SDS011;28750;59.842;17.584;2022-11-20T11:39:46;1.60;;;1.50;;
43142;SDS011;28750;59.842;17.584;2022-11-20T11:42:16;2.70;;;1.60;;
43142;SDS011;28750;59.842;17.584;2022-11-20T11:44:46;9.25;;;6.32;;
43142;SDS011;28750;59.842;17.584;2022-11-20T11:55:39;1.92;;;1.35;;
43142;SDS011;28750;59.842;17.584;2022-11-20T12:07:10;2.30;;;1.77;;
43142;SDS011;28750;59.842;17.584;2022-11-20T12:09:48;4.07;;;1.83;;
43142;SDS011;28750;59.842;17.584;2022-11-20T12:12:27;1.83;;;1.60;;
43142;SDS011;28750;59.842;17.584;2022-11-20T12:15:01;1.80;;;1.65;;
43142;SDS011;28750;59.842;17.584;2022-11-20T12:17:30;5.63;;;2.22;;
43142;SDS011;28750;59.842;17.584;2022-11-20T12:19:57;2.67;;;1.67;;
43142;SDS011;28750;59.842;17.584;2022-11-20T12:25:15;2.90;;;1.88;;
43142;SDS011;28750;59.842;17.584;2022-11-20T12:33:34;2.22;;;1.70;;
43142;SDS011;28750;59.842;17.584;2022-11-20T12:36:27;2.97;;;2.20;;
43142;SDS011;28750;59.842;17.584;2022-11-20T12:41:47;1.92;;;1.80;;
43142;SDS011;28750;59.842;17.584;2022-11-20T12:44:52;3.95;;;1.92;;
43142;SDS011;28750;59.842;17.584;2022-11-20T12:47:40;1.80;;;1.70;;
43142;SDS011;28750;59.842;17.584;2022-11-20T13:04:22;1.95;;;1.85;;
43142;SDS011;28750;59.842;17.584;2022-11-20T13:07:03;2.72;;;1.80;;
43142;SDS011;28750;59.842;17.584;2022-11-20T13:09:37;2.85;;;2.05;;
43142;SDS011;28750;59.842;17.584;2022-11-20T13:12:16;3.75;;;2.45;;
43142;SDS011;28750;59.842;17.584;2022-11-20T13:14:53;2.10;;;1.90;;
43142;SDS011;28750;59.842;17.584;2022-11-20T13:20:13;4.97;;;2.13;;
43142;SDS011;28750;59.842;17.584;2022-11-20T13:22:45;2.60;;;2.40;;
43142;SDS011;28750;59.842;17.584;2022-11-20T13:25:31;3.13;;;2.60;;
43142;SDS011;28750;59.842;17.584;2022-11-20T13:28:01;2.65;;;2.28;;
43142;SDS011;28750;59.842;17.584;2022-11-20T13:30:50;3.88;;;2.63;;
43142;SDS011;28750;59.842;17.584;2022-11-20T13:33:23;4.65;;;2.65;;
43142;SDS011;28750;59.842;17.584;2022-11-20T13:36:01;4.90;;;2.22;;
43142;SDS011;28750;59.842;17.584;2022-11-20T13:38:49;2.47;;;2.28;;
43142;SDS011;28750;59.842;17.584;2022-11-20T13:43:59;6.07;;;2.38;;
43142;SDS011;28750;59.842;17.584;2022-11-20T13:46:49;1.80;;;1.70;;
43142;SDS011;28750;59.842;17.584;2022-11-20T13:49:18;3.78;;;2.30;;
43142;SDS011;28750;59.842;17.584;2022-11-20T13:54:55;4.35;;;2.78;;
43142;SDS011;28750;59.842;17.584;2022-11-20T14:00:26;4.65;;;2.72;;
43142;SDS011;28750;59.842;17.584;2022-11-20T14:05:37;2.33;;;2.13;;
43142;SDS011;28750;59.842;17.584;2022-11-20T14:08:13;3.17;;;2.70;;
43142;SDS011;28750;59.842;17.584;2022-11-20T14:10:48;2.75;;;2.17;;
43142;SDS011;28750;59.842;17.584;2022-11-20T14:13:16;3.75;;;2.20;;
43142;SDS011;28750;59.842;17.584;2022-11-20T14:15:45;3.37;;;2.30;;
43142;SDS011;28750;59.842;17.584;2022-11-20T14:18:14;2.45;;;2.25;;
43142;SDS011;28750;59.842;17.584;2022-11-20T14:20:46;4.30;;;2.50;;
43142;SDS011;28750;59.842;17.584;2022-11-20T14:23:23;3.50;;;1.83;;
43142;SDS011;28750;59.842;17.584;2022-11-20T14:25:54;2.38;;;1.98;;
43142;SDS011;28750;59.842;17.584;2022-11-20T14:28:28;2.22;;;2.10;;
43142;SDS011;28750;59.842;17.584;2022-11-20T14:30:57;3.17;;;2.20;;
43142;SDS011;28750;59.842;17.584;2022-11-20T14:33:25;3.17;;;2.17;;
43142;SDS011;28750;59.842;17.584;2022-11-20T14:35:53;2.03;;;1.92;;
43142;SDS011;28750;59.842;17.584;2022-11-20T14:38:26;2.85;;;1.90;;
43142;SDS011;28750;59.842;17.584;2022-11-20T14:41:05;2.83;;;2.30;;
43142;SDS011;28750;59.842;17.584;2022-11-20T14:43:33;16.60;;;6.97;;
43142;SDS011;28750;59.842;17.584;2022-11-20T14:46:03;10.82;;;6.35;;
43142;SDS011;28750;59.842;17.584;2022-11-20T14:48:55;8.52;;;5.18;;
43142;SDS011;28750;59.842;17.584;2022-11-20T14:51:32;3.33;;;2.72;;
43142;SDS011;28750;59.842;17.584;2022-11-20T14:56:57;2.55;;;2.25;;
43142;SDS011;28750;59.842;17.584;2022-11-20T14:59:27;2.50;;;2.20;;
43142;SDS011;28750;59.842;17.584;2022-11-20T15:01:57;3.33;;;2.40;;
43142;SDS011;28750;59.842;17.584;2022-11-20T15:04:26;3.63;;;2.33;;
43142;SDS011;28750;59.842;17.584;2022-11-20T15:06:54;2.33;;;1.77;;
43142;SDS011;28750;59.842;17.584;2022-11-20T15:09:22;4.60;;;2.53;;
43142;SDS011;28750;59.842;17.584;2022-11-20T15:12:15;2.33;;;2.13;;
43142;SDS011;28750;59.842;17.584;2022-11-20T15:14:43;3.80;;;2.28;;
43142;SDS011;28750;59.842;17.584;2022-11-20T15:17:10;4.25;;;2.22;;
43142;SDS011;28750;59.842;17.584;2022-11-20T15:19:38;2.97;;;2.10;;
43142;SDS011;28750;59.842;17.584;2022-11-20T15:22:07;3.08;;;1.83;;
43142;SDS011;28750;59.842;17.584;2022-11-20T15:24:41;11.77;;;2.80;;
43142;SDS011;28750;59.842;17.584;2022-11-20T15:27:09;1.90;;;1.70;;
43142;SDS011;28750;59.842;17.584;2022-11-20T15:29:37;2.42;;;1.75;;
43142;SDS011;28750;59.842;17.584;2022-11-20T15:32:04;3.38;;;1.80;;
43142;SDS011;28750;59.842;17.584;2022-11-20T15:34:31;1.85;;;1.60;;
43142;SDS011;28750;59.842;17.584;2022-11-20T15:36:58;2.58;;;2.13;;
43142;SDS011;28750;59.842;17.584;2022-11-20T15:39:25;1.75;;;1.65;;
43142;SDS011;28750;59.842;17.584;2022-11-20T15:41:52;2.90;;;1.88;;
43142;SDS011;28750;59.842;17.584;2022-11-20T15:44:19;3.35;;;1.92;;
43142;SDS011;28750;59.842;17.584;2022-11-20T15:46:46;3.00;;;2.17;;
43142;SDS011;28750;59.842;17.584;2022-11-20T15:49:14;2.47;;;1.90;;
43142;SDS011;28750;59.842;17.584;2022-11-20T15:51:44;1.50;;;1.40;;
43142;SDS011;28750;59.842;17.584;2022-11-20T15:54:18;2.50;;;1.40;;
43142;SDS011;28750;59.842;17.584;2022-11-20T15:56:47;2.38;;;1.60;;
43142;SDS011;28750;59.842;17.584;2022-11-20T15:59:17;4.10;;;1.60;;
43142;SDS011;28750;59.842;17.584;2022-11-20T16:01:44;2.63;;;1.77;;
43142;SDS011;28750;59.842;17.584;2022-11-20T16:04:13;2.22;;;1.63;;
43142;SDS011;28750;59.842;17.584;2022-11-20T16:06:41;1.95;;;1.73;;
43142;SDS011;28750;59.842;17.584;2022-11-20T16:09:09;1.88;;;1.67;;
43142;SDS011;28750;59.842;17.584;2022-11-20T16:11:36;2.78;;;1.90;;
43142;SDS011;28750;59.842;17.584;2022-11-20T16:14:04;1.88;;;1.70;;
43142;SDS011;28750;59.842;17.584;2022-11-20T16:16:48;1.95;;;1.60;;
43142;SDS011;28750;59.842;17.584;2022-11-20T16:19:16;1.70;;;1.60;;
43142;SDS011;28750;59.842;17.584;2022-11-20T16:21:43;2.20;;;1.90;;
43142;SDS011;28750;59.842;17.584;2022-11-20T16:24:11;3.40;;;1.30;;
43142;SDS011;28750;59.842;17.584;2022-11-20T16:26:39;1.30;;;1.20;;
43142;SDS011;28750;59.842;17.584;2022-11-20T16:29:07;2.92;;;1.60;;
43142;SDS011;28750;59.842;17.584;2022-11-20T16:31:35;4.78;;;1.65;;
43142;SDS011;28750;59.842;17.584;2022-11-20T16:34:03;1.52;;;1.42;;